sensor_id;sensor_type;location;lat;lon;timestamp;pressure;altitude;pressure_sealevel;temperature;humidity
48555;BME280;34336;48.270;16.716;2023-05-10T00:01:59;109325.25;;;18.16;69.38
48555;BME280;34336;48.270;16.716;2023-05-10T00:04:27;109325.25;;;18.16;69.52
48555;BME280;34336;48.270;16.716;2023-05-10T00:06:53;109325.25;;;18.16;69.34
48555;BME280;34336;48.270;16.716;2023-05-10T00:09:21;109325.25;;;18.16;69.97
48555;BME280;34336;48.270;16.716;2023-05-10T00:11:47;109325.25;;;18.16;69.90
48555;BME280;34336;48.270;16.716;2023-05-10T00:14:14;109325.25;;;18.16;69.49
48555;BME280;34336;48.270;16.716;2023-05-10T00:16:40;109325.25;;;18.16;69.71
48555;BME280;34336;48.270;16.716;2023-05-10T00:19:07;109325.25;;;18.16;70.02
48555;BME280;34336;48.270;16.716;2023-05-10T00:21:34;109325.25;;;18.16;70.16
48555;BME280;34336;48.270;16.716;2023-05-10T00:24:00;109325.25;;;18.16;70.19
48555;BME280;34336;48.270;16.716;2023-05-10T00:26:27;109325.25;;;18.16;70.39
48555;BME280;34336;48.270;16.716;2023-05-10T00:28:55;109325.25;;;18.16;70.64
48555;BME280;34336;48.270;16.716;2023-05-10T00:31:23;109325.25;;;18.16;70.10
48555;BME280;34336;48.270;16.716;2023-05-10T00:33:49;109325.25;;;18.16;70.07
48555;BME280;34336;48.270;16.716;2023-05-10T00:36:16;109325.25;;;18.16;69.56
48555;BME280;34336;48.270;16.716;2023-05-10T00:38:42;109325.25;;;18.16;69.57
48555;BME280;34336;48.270;16.716;2023-05-10T00:41:09;109325.25;;;18.16;69.37
48555;BME280;34336;48.270;16.716;2023-05-10T00:43:38;109325.25;;;18.16;69.58
48555;BME280;34336;48.270;16.716;2023-05-10T00:46:04;109325.25;;;18.16;69.85
48555;BME280;34336;48.270;16.716;2023-05-10T00:48:32;109325.25;;;18.16;69.94
48555;BME280;34336;48.270;16.716;2023-05-10T00:50:58;109325.25;;;18.16;70.03
48555;BME280;34336;48.270;16.716;2023-05-10T00:53:25;109325.25;;;18.16;70.33
48555;BME280;34336;48.270;16.716;2023-05-10T00:55:52;109325.25;;;18.16;70.76
48555;BME280;34336;48.270;16.716;2023-05-10T00:58:19;109325.25;;;18.16;70.77
48555;BME280;34336;48.270;16.716;2023-05-10T01:00:46;109325.25;;;18.16;70.32
48555;BME280;34336;48.270;16.716;2023-05-10T01:03:12;109325.25;;;18.16;70.49
48555;BME280;34336;48.270;16.716;2023-05-10T01:05:40;109325.25;;;18.16;70.26
48555;BME280;34336;48.270;16.716;2023-05-10T01:08:06;109325.25;;;18.16;70.16
48555;BME280;34336;48.270;16.716;2023-05-10T01:10:35;109325.25;;;18.16;69.49
48555;BME280;34336;48.270;16.716;2023-05-10T01:13:01;109325.25;;;18.16;69.98
48555;BME280;34336;48.270;16.716;2023-05-10T01:15:29;109325.25;;;18.16;70.18
48555;BME280;34336;48.270;16.716;2023-05-10T01:17:56;109325.25;;;18.16;69.99
48555;BME280;34336;48.270;16.716;2023-05-10T01:20:23;109325.25;;;18.16;69.11
48555;BME280;34336;48.270;16.716;2023-05-10T01:33:11;109325.25;;;18.16;68.89
48555;BME280;34336;48.270;16.716;2023-05-10T01:35:43;109325.25;;;18.16;68.71
48555;BME280;34336;48.270;16.716;2023-05-10T01:38:19;109325.25;;;18.16;69.33
48555;BME280;34336;48.270;16.716;2023-05-10T01:43:18;109325.25;;;18.16;69.24
48555;BME280;34336;48.270;16.716;2023-05-10T01:45:59;109325.25;;;18.16;68.89
48555;BME280;34336;48.270;16.716;2023-05-10T01:48:30;109325.25;;;18.16;69.03
48555;BME280;34336;48.270;16.716;2023-05-10T01:50:59;109325.25;;;18.16;69.38
48555;BME280;34336;48.270;16.716;2023-05-10T01:53:26;109325.25;;;18.16;69.40
48555;BME280;34336;48.270;16.716;2023-05-10T01:55:53;109325.25;;;18.16;70.29
48555;BME280;34336;48.270;16.716;2023-05-10T01:58:28;109325.25;;;18.16;69.81
48555;BME280;34336;48.270;16.716;2023-05-10T02:00:56;109325.25;;;18.16;70.48
48555;BME280;34336;48.270;16.716;2023-05-10T02:03:25;109325.25;;;18.16;70.42
48555;BME280;34336;48.270;16.716;2023-05-10T02:05:53;109325.25;;;18.16;70.69
48555;BME280;34336;48.270;16.716;2023-05-10T02:08:20;109325.25;;;18.16;71.26
48555;BME280;34336;48.270;16.716;2023-05-10T02:10:49;109325.25;;;18.16;71.06
48555;BME280;34336;48.270;16.716;2023-05-10T02:13:17;109325.25;;;18.16;70.48
48555;BME280;34336;48.270;16.716;2023-05-10T02:15:46;109325.25;;;18.16;71.22
48555;BME280;34336;48.270;16.716;2023-05-10T02:18:13;109325.25;;;18.16;71.22
48555;BME280;34336;48.270;16.716;2023-05-10T02:20:41;109325.25;;;18.16;70.93
48555;BME280;34336;48.270;16.716;2023-05-10T02:23:09;109325.25;;;18.16;71.75
48555;BME280;34336;48.270;16.716;2023-05-10T02:25:36;109325.25;;;18.16;71.82
48555;BME280;34336;48.270;16.716;2023-05-10T02:28:05;109325.25;;;18.16;72.12
48555;BME280;34336;48.270;16.716;2023-05-10T02:30:34;109325.25;;;18.16;72.04
48555;BME280;34336;48.270;16.716;2023-05-10T02:33:01;109325.25;;;18.16;71.98
48555;BME280;34336;48.270;16.716;2023-05-10T02:35:29;109325.25;;;18.16;72.38
48555;BME280;34336;48.270;16.716;2023-05-10T02:37:57;109325.25;;;18.16;72.10
48555;BME280;34336;48.270;16.716;2023-05-10T02:40:24;109325.25;;;18.16;72.32
48555;BME280;34336;48.270;16.716;2023-05-10T02:42:55;109325.25;;;18.16;72.93
48555;BME280;34336;48.270;16.716;2023-05-10T02:45:23;109325.25;;;18.16;73.62
48555;BME280;34336;48.270;16.716;2023-05-10T02:47:51;109325.25;;;18.16;73.38
48555;BME280;34336;48.270;16.716;2023-05-10T02:50:19;109325.25;;;18.16;73.91
48555;BME280;34336;48.270;16.716;2023-05-10T02:52:47;109325.25;;;18.16;73.76
48555;BME280;34336;48.270;16.716;2023-05-10T02:55:15;109325.25;;;18.16;74.16
48555;BME280;34336;48.270;16.716;2023-05-10T02:57:47;109325.25;;;18.16;74.65
48555;BME280;34336;48.270;16.716;2023-05-10T03:00:15;109325.25;;;18.16;75.22
48555;BME280;34336;48.270;16.716;2023-05-10T03:02:42;109325.25;;;18.16;74.49
48555;BME280;34336;48.270;16.716;2023-05-10T03:05:08;109325.25;;;18.16;74.95
48555;BME280;34336;48.270;16.716;2023-05-10T03:07:35;109325.25;;;18.16;75.69
48555;BME280;34336;48.270;16.716;2023-05-10T03:10:02;109325.25;;;18.16;75.79
48555;BME280;34336;48.270;16.716;2023-05-10T03:20:24;109325.25;;;18.16;77.15
48555;BME280;34336;48.270;16.716;2023-05-10T03:22:54;109325.25;;;18.16;77.71
48555;BME280;34336;48.270;16.716;2023-05-10T03:25:22;109325.25;;;18.16;77.62
48555;BME280;34336;48.270;16.716;2023-05-10T03:27:51;109325.25;;;18.16;78.35
48555;BME280;34336;48.270;16.716;2023-05-10T03:30:18;109325.25;;;18.16;78.63
48555;BME280;34336;48.270;16.716;2023-05-10T03:32:45;109325.25;;;18.16;78.39
48555;BME280;34336;48.270;16.716;2023-05-10T03:35:15;109325.25;;;18.16;78.47
48555;BME280;34336;48.270;16.716;2023-05-10T03:37:42;109325.25;;;18.16;79.37
48555;BME280;34336;48.270;16.716;2023-05-10T03:40:10;109325.25;;;18.16;78.24
48555;BME280;34336;48.270;16.716;2023-05-10T03:42:39;109325.25;;;18.16;76.84
48555;BME280;34336;48.270;16.716;2023-05-10T03:45:06;109325.25;;;18.16;76.27
48555;BME280;34336;48.270;16.716;2023-05-10T03:47:33;109325.25;;;18.16;76.19
48555;BME280;34336;48.270;16.716;2023-05-10T03:50:00;109325.25;;;18.16;73.34
48555;BME280;34336;48.270;16.716;2023-05-10T03:52:26;109325.25;;;18.16;69.16
48555;BME280;34336;48.270;16.716;2023-05-10T03:54:54;109325.25;;;18.16;66.17
48555;BME280;34336;48.270;16.716;2023-05-10T03:57:22;109325.25;;;18.16;64.59
48555;BME280;34336;48.270;16.716;2023-05-10T03:59:48;109325.25;;;18.16;62.78
48555;BME280;34336;48.270;16.716;2023-05-10T04:02:16;109325.25;;;18.16;62.87
48555;BME280;34336;48.270;16.716;2023-05-10T04:04:42;109325.25;;;18.16;60.95
48555;BME280;34336;48.270;16.716;2023-05-10T04:07:09;109325.25;;;18.16;59.85
48555;BME280;34336;48.270;16.716;2023-05-10T04:09:36;109325.25;;;18.16;59.66
48555;BME280;34336;48.270;16.716;2023-05-10T04:12:03;109325.25;;;18.16;59.38
48555;BME280;34336;48.270;16.716;2023-05-10T04:14:29;109325.25;;;18.16;57.96
48555;BME280;34336;48.270;16.716;2023-05-10T04:16:56;109325.25;;;18.16;57.73
48555;BME280;34336;48.270;16.716;2023-05-10T04:19:23;109325.25;;;18.16;58.30
48555;BME280;34336;48.270;16.716;2023-05-10T04:21:49;109325.25;;;18.16;58.08
48555;BME280;34336;48.270;16.716;2023-05-10T04:24:16;109325.25;;;18.16;56.29
48555;BME280;34336;48.270;16.716;2023-05-10T04:26:43;109325.25;;;18.16;53.79
48555;BME280;34336;48.270;16.716;2023-05-10T04:29:09;109325.25;;;18.16;52.05
48555;BME280;34336;48.270;16.716;2023-05-10T04:31:36;109325.25;;;18.16;50.99
48555;BME280;34336;48.270;16.716;2023-05-10T04:34:02;109325.25;;;18.16;50.08
48555;BME280;34336;48.270;16.716;2023-05-10T04:36:29;109325.25;;;18.16;48.82
48555;BME280;34336;48.270;16.716;2023-05-10T04:38:56;109325.25;;;18.16;50.42
48555;BME280;34336;48.270;16.716;2023-05-10T04:41:22;109325.25;;;18.16;48.19
48555;BME280;34336;48.270;16.716;2023-05-10T04:43:49;109325.25;;;18.16;50.27
48555;BME280;34336;48.270;16.716;2023-05-10T04:46:15;109325.25;;;18.16;47.50
48555;BME280;34336;48.270;16.716;2023-05-10T04:48:42;109325.25;;;18.16;48.37
48555;BME280;34336;48.270;16.716;2023-05-10T04:51:08;109325.25;;;18.16;47.87
48555;BME280;34336;48.270;16.716;2023-05-10T04:53:35;109325.25;;;18.16;48.79
48555;BME280;34336;48.270;16.716;2023-05-10T04:56:02;109325.25;;;18.16;48.32
48555;BME280;34336;48.270;16.716;2023-05-10T04:58:29;109325.25;;;18.16;46.68
48555;BME280;34336;48.270;16.716;2023-05-10T05:00:55;109325.25;;;18.16;47.52
48555;BME280;34336;48.270;16.716;2023-05-10T05:03:22;109325.25;;;18.16;46.43
48555;BME280;34336;48.270;16.716;2023-05-10T05:05:49;109325.25;;;18.16;49.16
48555;BME280;34336;48.270;16.716;2023-05-10T05:08:15;109325.25;;;18.16;47.65
48555;BME280;34336;48.270;16.716;2023-05-10T05:10:42;109325.25;;;18.16;46.39
48555;BME280;34336;48.270;16.716;2023-05-10T05:13:09;109325.25;;;18.16;48.27
48555;BME280;34336;48.270;16.716;2023-05-10T05:15:35;109325.25;;;18.16;46.10
48555;BME280;34336;48.270;16.716;2023-05-10T05:18:02;109325.25;;;18.16;46.51
48555;BME280;34336;48.270;16.716;2023-05-10T05:20:31;109325.25;;;18.16;45.05
48555;BME280;34336;48.270;16.716;2023-05-10T05:22:58;109325.25;;;18.16;45.42
48555;BME280;34336;48.270;16.716;2023-05-10T05:25:24;109325.25;;;18.16;43.39
48555;BME280;34336;48.270;16.716;2023-05-10T05:27:51;109325.25;;;18.16;44.25
48555;BME280;34336;48.270;16.716;2023-05-10T05:30:17;109325.25;;;18.16;46.85
48555;BME280;34336;48.270;16.716;2023-05-10T05:32:44;109325.25;;;18.16;45.83
48555;BME280;34336;48.270;16.716;2023-05-10T05:35:11;109325.25;;;18.16;47.52
48555;BME280;34336;48.270;16.716;2023-05-10T05:37:38;109325.25;;;18.16;45.24
48555;BME280;34336;48.270;16.716;2023-05-10T05:40:05;109325.25;;;18.16;46.39
48555;BME280;34336;48.270;16.716;2023-05-10T05:42:32;109325.25;;;18.16;46.37
48555;BME280;34336;48.270;16.716;2023-05-10T05:44:58;109325.25;;;18.16;47.60
48555;BME280;34336;48.270;16.716;2023-05-10T05:47:25;109325.25;;;18.16;45.74
48555;BME280;34336;48.270;16.716;2023-05-10T05:49:52;109325.25;;;18.16;42.46
48555;BME280;34336;48.270;16.716;2023-05-10T05:52:18;109325.25;;;18.16;44.44
48555;BME280;34336;48.270;16.716;2023-05-10T05:54:45;109325.25;;;18.16;44.57
48555;BME280;34336;48.270;16.716;2023-05-10T05:57:11;109325.25;;;18.16;44.02
48555;BME280;34336;48.270;16.716;2023-05-10T05:59:38;109325.25;;;18.16;46.57
48555;BME280;34336;48.270;16.716;2023-05-10T06:02:10;109325.25;;;18.16;46.20
48555;BME280;34336;48.270;16.716;2023-05-10T06:04:36;109325.25;;;18.16;45.42
48555;BME280;34336;48.270;16.716;2023-05-10T06:07:04;109325.25;;;18.16;43.12
48555;BME280;34336;48.270;16.716;2023-05-10T06:09:30;109325.25;;;18.16;43.27
48555;BME280;34336;48.270;16.716;2023-05-10T06:11:57;109325.25;;;18.16;44.38
48555;BME280;34336;48.270;16.716;2023-05-10T06:14:24;109325.25;;;18.16;42.72
48555;BME280;34336;48.270;16.716;2023-05-10T06:16:50;109325.25;;;18.16;43.60
48555;BME280;34336;48.270;16.716;2023-05-10T06:19:17;109325.25;;;18.16;45.24
48555;BME280;34336;48.270;16.716;2023-05-10T06:21:44;109325.25;;;18.16;46.34
48555;BME280;34336;48.270;16.716;2023-05-10T06:24:10;109325.25;;;18.16;48.98
48555;BME280;34336;48.270;16.716;2023-05-10T06:26:37;109325.25;;;18.16;49.70
48555;BME280;34336;48.270;16.716;2023-05-10T06:29:04;109325.25;;;18.16;47.84
48555;BME280;34336;48.270;16.716;2023-05-10T06:31:30;109325.25;;;18.16;48.38
48555;BME280;34336;48.270;16.716;2023-05-10T06:33:57;109325.25;;;18.16;47.19
48555;BME280;34336;48.270;16.716;2023-05-10T06:36:24;109325.25;;;18.16;46.11
48555;BME280;34336;48.270;16.716;2023-05-10T06:38:52;109325.25;;;18.16;48.99
48555;BME280;34336;48.270;16.716;2023-05-10T06:41:19;109325.25;;;18.16;49.94
48555;BME280;34336;48.270;16.716;2023-05-10T06:43:47;109325.25;;;18.16;48.91
48555;BME280;34336;48.270;16.716;2023-05-10T06:46:14;109325.25;;;18.16;51.09
48555;BME280;34336;48.270;16.716;2023-05-10T06:48:41;109325.25;;;18.16;47.45
48555;BME280;34336;48.270;16.716;2023-05-10T06:51:07;109325.25;;;18.16;49.32
48555;BME280;34336;48.270;16.716;2023-05-10T06:53:34;109325.25;;;18.16;49.07
48555;BME280;34336;48.270;16.716;2023-05-10T06:56:00;109325.25;;;18.16;48.27
48555;BME280;34336;48.270;16.716;2023-05-10T06:58:29;109325.25;;;18.16;49.35
48555;BME280;34336;48.270;16.716;2023-05-10T07:01:01;109325.25;;;18.16;47.55
48555;BME280;34336;48.270;16.716;2023-05-10T07:03:28;109325.25;;;18.16;46.92
48555;BME280;34336;48.270;16.716;2023-05-10T07:05:59;109325.25;;;18.16;46.78
48555;BME280;34336;48.270;16.716;2023-05-10T07:08:26;109325.25;;;18.16;46.00
48555;BME280;34336;48.270;16.716;2023-05-10T07:10:52;109325.25;;;18.16;48.21
48555;BME280;34336;48.270;16.716;2023-05-10T07:13:19;109325.25;;;18.16;47.63
48555;BME280;34336;48.270;16.716;2023-05-10T07:15:46;109325.25;;;18.16;48.03
48555;BME280;34336;48.270;16.716;2023-05-10T07:18:12;109325.25;;;18.16;49.81
48555;BME280;34336;48.270;16.716;2023-05-10T07:20:39;109325.25;;;18.16;48.90
48555;BME280;34336;48.270;16.716;2023-05-10T07:23:05;109325.25;;;18.16;45.98
48555;BME280;34336;48.270;16.716;2023-05-10T07:25:32;109325.25;;;18.16;45.65
48555;BME280;34336;48.270;16.716;2023-05-10T07:27:59;109325.25;;;18.16;47.03
48555;BME280;34336;48.270;16.716;2023-05-10T07:30:25;109325.25;;;18.16;44.96
48555;BME280;34336;48.270;16.716;2023-05-10T07:32:52;109325.25;;;18.16;44.22
48555;BME280;34336;48.270;16.716;2023-05-10T07:35:18;109325.25;;;18.16;43.06
48555;BME280;34336;48.270;16.716;2023-05-10T07:37:45;109325.25;;;18.16;44.54
48555;BME280;34336;48.270;16.716;2023-05-10T07:40:12;109325.25;;;18.16;43.78
48555;BME280;34336;48.270;16.716;2023-05-10T07:42:38;109325.25;;;18.16;44.20
48555;BME280;34336;48.270;16.716;2023-05-10T07:45:05;109325.25;;;18.16;45.06
48555;BME280;34336;48.270;16.716;2023-05-10T07:47:32;109325.25;;;18.16;43.93
48555;BME280;34336;48.270;16.716;2023-05-10T07:49:58;109325.25;;;18.16;44.57
48555;BME280;34336;48.270;16.716;2023-05-10T07:52:25;109325.25;;;18.16;44.99
48555;BME280;34336;48.270;16.716;2023-05-10T07:54:51;109325.25;;;18.16;44.73
48555;BME280;34336;48.270;16.716;2023-05-10T07:57:18;109325.25;;;18.16;44.46
48555;BME280;34336;48.270;16.716;2023-05-10T07:59:45;109325.25;;;18.16;48.08
48555;BME280;34336;48.270;16.716;2023-05-10T08:02:11;109325.25;;;18.16;45.21
48555;BME280;34336;48.270;16.716;2023-05-10T08:04:38;109325.25;;;18.16;46.87
48555;BME280;34336;48.270;16.716;2023-05-10T08:07:05;109325.25;;;18.16;47.42
48555;BME280;34336;48.270;16.716;2023-05-10T08:09:31;109325.25;;;18.16;47.94
48555;BME280;34336;48.270;16.716;2023-05-10T08:11:58;109325.25;;;18.16;48.69
48555;BME280;34336;48.270;16.716;2023-05-10T08:14:27;109325.25;;;18.16;46.78
48555;BME280;34336;48.270;16.716;2023-05-10T08:16:54;109325.25;;;18.16;47.51
48555;BME280;34336;48.270;16.716;2023-05-10T08:19:20;109325.25;;;18.16;48.05
48555;BME280;34336;48.270;16.716;2023-05-10T08:21:48;109325.25;;;18.16;49.62
48555;BME280;34336;48.270;16.716;2023-05-10T08:24:14;109325.25;;;18.16;50.53
48555;BME280;34336;48.270;16.716;2023-05-10T08:26:41;109325.25;;;18.16;47.82
48555;BME280;34336;48.270;16.716;2023-05-10T08:29:08;109325.25;;;18.16;47.10
48555;BME280;34336;48.270;16.716;2023-05-10T08:31:35;109325.25;;;18.16;47.59
48555;BME280;34336;48.270;16.716;2023-05-10T08:34:01;109325.25;;;18.16;47.51
48555;BME280;34336;48.270;16.716;2023-05-10T08:36:28;109325.25;;;18.16;47.16
48555;BME280;34336;48.270;16.716;2023-05-10T08:38:54;109325.25;;;18.16;47.46
48555;BME280;34336;48.270;16.716;2023-05-10T08:41:21;109325.25;;;18.16;48.16
48555;BME280;34336;48.270;16.716;2023-05-10T08:43:50;109325.25;;;18.16;47.23
48555;BME280;34336;48.270;16.716;2023-05-10T08:46:17;109325.25;;;18.16;47.98
48555;BME280;34336;48.270;16.716;2023-05-10T08:48:44;109325.25;;;18.16;47.48
48555;BME280;34336;48.270;16.716;2023-05-10T08:51:14;109325.25;;;18.16;48.82
48555;BME280;34336;48.270;16.716;2023-05-10T08:53:42;109325.25;;;18.16;48.50
48555;BME280;34336;48.270;16.716;2023-05-10T08:56:09;109325.25;;;18.16;49.43
48555;BME280;34336;48.270;16.716;2023-05-10T08:58:36;109325.25;;;18.16;47.60
48555;BME280;34336;48.270;16.716;2023-05-10T09:01:05;109325.25;;;18.16;47.39
48555;BME280;34336;48.270;16.716;2023-05-10T09:03:31;109325.25;;;18.16;47.34
48555;BME280;34336;48.270;16.716;2023-05-10T09:05:58;109325.25;;;18.16;47.43
48555;BME280;34336;48.270;16.716;2023-05-10T09:08:25;109325.25;;;18.16;47.28
48555;BME280;34336;48.270;16.716;2023-05-10T09:10:53;109325.25;;;18.16;48.22
48555;BME280;34336;48.270;16.716;2023-05-10T09:13:20;109325.25;;;18.16;48.33
48555;BME280;34336;48.270;16.716;2023-05-10T09:15:47;109325.25;;;18.16;46.97
48555;BME280;34336;48.270;16.716;2023-05-10T09:18:14;109325.25;;;18.16;48.98
48555;BME280;34336;48.270;16.716;2023-05-10T09:20:41;109325.25;;;18.16;49.67
48555;BME280;34336;48.270;16.716;2023-05-10T09:23:08;109325.25;;;18.16;49.34
48555;BME280;34336;48.270;16.716;2023-05-10T09:25:35;109325.25;;;18.16;48.10
48555;BME280;34336;48.270;16.716;2023-05-10T09:28:01;109325.25;;;18.16;48.95
48555;BME280;34336;48.270;16.716;2023-05-10T09:30:29;109325.25;;;18.16;48.16
48555;BME280;34336;48.270;16.716;2023-05-10T09:32:56;109325.25;;;18.16;47.90
48555;BME280;34336;48.270;16.716;2023-05-10T09:35:24;109325.25;;;18.16;49.23
48555;BME280;34336;48.270;16.716;2023-05-10T09:37:55;109325.25;;;18.16;48.59
48555;BME280;34336;48.270;16.716;2023-05-10T09:40:23;109325.25;;;18.16;47.71
48555;BME280;34336;48.270;16.716;2023-05-10T09:42:57;109325.25;;;18.16;48.45
48555;BME280;34336;48.270;16.716;2023-05-10T09:45:25;109325.25;;;18.16;49.22
48555;BME280;34336;48.270;16.716;2023-05-10T09:47:52;109325.25;;;18.16;47.50
48555;BME280;34336;48.270;16.716;2023-05-10T09:50:19;109325.25;;;18.16;48.37
48555;BME280;34336;48.270;16.716;2023-05-10T09:52:47;109325.25;;;18.16;48.09
48555;BME280;34336;48.270;16.716;2023-05-10T09:55:15;109325.25;;;18.16;47.38
48555;BME280;34336;48.270;16.716;2023-05-10T09:57:42;109325.25;;;18.16;47.43
48555;BME280;34336;48.270;16.716;2023-05-10T10:00:08;109325.25;;;18.16;46.39
48555;BME280;34336;48.270;16.716;2023-05-10T10:02:41;109325.25;;;18.16;47.81
48555;BME280;34336;48.270;16.716;2023-05-10T10:05:07;109325.25;;;18.16;46.21
48555;BME280;34336;48.270;16.716;2023-05-10T10:07:34;109325.25;;;18.16;47.24
48555;BME280;34336;48.270;16.716;2023-05-10T10:10:02;109325.25;;;18.16;46.79
48555;BME280;34336;48.270;16.716;2023-05-10T10:12:30;109325.25;;;18.16;46.59
48555;BME280;34336;48.270;16.716;2023-05-10T10:14:57;109325.25;;;18.16;47.59
48555;BME280;34336;48.270;16.716;2023-05-10T10:17:25;109325.25;;;18.16;47.39
48555;BME280;34336;48.270;16.716;2023-05-10T10:19:54;109325.25;;;18.16;46.47
48555;BME280;34336;48.270;16.716;2023-05-10T10:22:21;109325.25;;;18.16;46.94
48555;BME280;34336;48.270;16.716;2023-05-10T10:24:48;109325.25;;;18.16;46.12
48555;BME280;34336;48.270;16.716;2023-05-10T10:27:20;109325.25;;;18.16;46.20
48555;BME280;34336;48.270;16.716;2023-05-10T10:35:15;109325.25;;;18.16;47.70
48555;BME280;34336;48.270;16.716;2023-05-10T10:37:46;109325.25;;;18.16;47.50
48555;BME280;34336;48.270;16.716;2023-05-10T10:40:22;109325.25;;;18.16;46.93
48555;BME280;34336;48.270;16.716;2023-05-10T10:42:49;109325.25;;;18.16;44.01
48555;BME280;34336;48.270;16.716;2023-05-10T10:45:20;109325.25;;;18.16;45.36
48555;BME280;34336;48.270;16.716;2023-05-10T10:47:47;109325.25;;;18.16;44.41
48555;BME280;34336;48.270;16.716;2023-05-10T10:50:14;109325.25;;;18.16;45.65
48555;BME280;34336;48.270;16.716;2023-05-10T10:52:43;109325.25;;;18.16;44.62
48555;BME280;34336;48.270;16.716;2023-05-10T11:00:19;109325.25;;;18.16;44.79
48555;BME280;34336;48.270;16.716;2023-05-10T11:02:47;109325.25;;;18.16;45.25
48555;BME280;34336;48.270;16.716;2023-05-10T11:08:14;109325.25;;;18.16;45.98
48555;BME280;34336;48.270;16.716;2023-05-10T11:10:50;109325.25;;;18.16;43.46
48555;BME280;34336;48.270;16.716;2023-05-10T11:13:26;109325.25;;;18.16;44.38
48555;BME280;34336;48.270;16.716;2023-05-10T11:15:53;109325.25;;;18.16;43.59
48555;BME280;34336;48.270;16.716;2023-05-10T11:18:20;109325.25;;;18.16;44.04
48555;BME280;34336;48.270;16.716;2023-05-10T11:20:51;109325.25;;;18.16;43.18
48555;BME280;34336;48.270;16.716;2023-05-10T11:23:18;109325.25;;;18.16;45.74
48555;BME280;34336;48.270;16.716;2023-05-10T11:25:45;109325.25;;;18.16;45.60
48555;BME280;34336;48.270;16.716;2023-05-10T11:28:12;109325.25;;;18.16;44.39
48555;BME280;34336;48.270;16.716;2023-05-10T11:30:39;109325.25;;;18.16;44.49
48555;BME280;34336;48.270;16.716;2023-05-10T11:33:07;109325.25;;;18.16;45.31
48555;BME280;34336;48.270;16.716;2023-05-10T11:35:37;109325.25;;;18.16;45.01
48555;BME280;34336;48.270;16.716;2023-05-10T11:38:09;109325.25;;;18.16;44.82
48555;BME280;34336;48.270;16.716;2023-05-10T11:40:36;109325.25;;;18.16;43.72
48555;BME280;34336;48.270;16.716;2023-05-10T11:43:03;109325.25;;;18.16;44.61
48555;BME280;34336;48.270;16.716;2023-05-10T11:45:33;109325.25;;;18.16;44.18
48555;BME280;34336;48.270;16.716;2023-05-10T11:48:00;109325.25;;;18.16;43.77
48555;BME280;34336;48.270;16.716;2023-05-10T11:50:27;109325.25;;;18.16;45.89
48555;BME280;34336;48.270;16.716;2023-05-10T11:52:54;109325.25;;;18.16;43.76
48555;BME280;34336;48.270;16.716;2023-05-10T11:55:22;109325.25;;;18.16;45.86
48555;BME280;34336;48.270;16.716;2023-05-10T11:57:53;109325.25;;;18.16;43.68
48555;BME280;34336;48.270;16.716;2023-05-10T12:00:20;109325.25;;;18.16;42.63
48555;BME280;34336;48.270;16.716;2023-05-10T12:02:47;109325.25;;;18.16;42.59
48555;BME280;34336;48.270;16.716;2023-05-10T12:05:14;109325.25;;;18.16;44.86
48555;BME280;34336;48.270;16.716;2023-05-10T12:07:41;109325.25;;;18.16;44.10
48555;BME280;34336;48.270;16.716;2023-05-10T12:10:09;109325.25;;;18.16;44.84
48555;BME280;34336;48.270;16.716;2023-05-10T12:12:45;109325.25;;;18.16;44.13
48555;BME280;34336;48.270;16.716;2023-05-10T12:15:22;109325.25;;;18.16;44.57
48555;BME280;34336;48.270;16.716;2023-05-10T12:17:50;109325.25;;;18.16;43.64
48555;BME280;34336;48.270;16.716;2023-05-10T12:20:18;109325.25;;;18.16;43.86
48555;BME280;34336;48.270;16.716;2023-05-10T12:22:46;109325.25;;;18.16;44.00
48555;BME280;34336;48.270;16.716;2023-05-10T12:25:13;109325.25;;;18.16;42.89
48555;BME280;34336;48.270;16.716;2023-05-10T12:27:39;109325.25;;;18.16;44.71
48555;BME280;34336;48.270;16.716;2023-05-10T12:30:06;109325.25;;;18.16;43.38
48555;BME280;34336;48.270;16.716;2023-05-10T12:32:39;109325.25;;;18.16;43.97
48555;BME280;34336;48.270;16.716;2023-05-10T12:35:06;109325.25;;;18.16;45.37
48555;BME280;34336;48.270;16.716;2023-05-10T12:37:33;109325.25;;;18.16;43.86
48555;BME280;34336;48.270;16.716;2023-05-10T12:40:05;109325.25;;;18.16;43.73
48555;BME280;34336;48.270;16.716;2023-05-10T12:42:32;109325.25;;;18.16;43.99
48555;BME280;34336;48.270;16.716;2023-05-10T12:44:58;109325.25;;;18.16;45.17
48555;BME280;34336;48.270;16.716;2023-05-10T12:47:25;109325.25;;;18.16;44.61
48555;BME280;34336;48.270;16.716;2023-05-10T12:49:52;109325.25;;;18.16;45.20
48555;BME280;34336;48.270;16.716;2023-05-10T12:52:18;109325.25;;;18.16;44.36
48555;BME280;34336;48.270;16.716;2023-05-10T12:54:45;109325.25;;;18.16;45.02
48555;BME280;34336;48.270;16.716;2023-05-10T12:57:12;109325.25;;;18.16;44.09
48555;BME280;34336;48.270;16.716;2023-05-10T12:59:39;109325.25;;;18.16;43.66
48555;BME280;34336;48.270;16.716;2023-05-10T13:02:06;109325.25;;;18.16;43.61
48555;BME280;34336;48.270;16.716;2023-05-10T13:04:35;109325.25;;;18.16;42.72
48555;BME280;34336;48.270;16.716;2023-05-10T13:07:06;109325.25;;;18.16;44.20
48555;BME280;34336;48.270;16.716;2023-05-10T13:09:32;109325.25;;;18.16;45.18
48555;BME280;34336;48.270;16.716;2023-05-10T13:11:59;109325.25;;;18.16;42.93
48555;BME280;34336;48.270;16.716;2023-05-10T13:14:26;109325.25;;;18.16;44.32
48555;BME280;34336;48.270;16.716;2023-05-10T13:16:52;109325.25;;;18.16;44.22